Time;durP1;ratioP1;P1;durP2;ratioP2;P2;SDS_P1;SDS_P2;PMS_P1;PMS_P2;Temp;Humidity;BMP_temperature;BMP_pressure;BME280_temperature;BME280_humidity;BME280_pressure;Samples;Min_cycle;Max_cycle;Signal;HPM_P1;HPM_P2
2022/11/06 00:00:38;;;;;;;4.45;3.10;;;;;;;;;;5034401;28;20204;-67
2022/11/06 00:03:05;;;;;;;5.93;3.25;;;;;;;;;;5033706;28;20212;-68
2022/11/06 00:08:26;;;;;;;2.72;2.25;;;;;;;;;;5039095;28;20245;-67
2022/11/06 00:10:54;;;;;;;3.80;2.92;;;;;;;;;;5042049;28;20219;-68
2022/11/06 00:13:21;;;;;;;6.05;3.17;;;;;;;;;;5043094;28;20200;-67
2022/11/06 00:15:48;;;;;;;4.40;3.25;;;;;;;;;;5044127;28;20232;-68
2022/11/06 00:18:16;;;;;;;3.60;3.25;;;;;;;;;;5044705;28;20209;-67
2022/11/06 00:20:43;;;;;;;4.32;3.22;;;;;;;;;;5041910;28;20205;-68
2022/11/06 00:23:10;;;;;;;3.80;3.05;;;;;;;;;;5036053;28;20204;-67
2022/11/06 00:25:40;;;;;;;2.90;2.60;;;;;;;;;;5035936;28;20221;-68
2022/11/06 00:28:08;;;;;;;3.10;2.80;;;;;;;;;;5039607;28;20573;-66
2022/11/06 00:30:35;;;;;;;4.60;2.95;;;;;;;;;;5038720;28;20575;-66
2022/11/06 00:33:02;;;;;;;7.43;3.35;;;;;;;;;;5039044;28;20200;-67
2022/11/06 00:35:30;;;;;;;3.33;3.03;;;;;;;;;;5038482;28;20228;-67
2022/11/06 00:37:57;;;;;;;5.32;3.25;;;;;;;;;;5038367;28;20205;-67
2022/11/06 00:40:24;;;;;;;5.03;3.00;;;;;;;;;;5039355;28;20209;-67
2022/11/06 00:42:54;;;;;;;4.45;2.75;;;;;;;;;;5038468;28;20719;-66
2022/11/06 00:45:23;;;;;;;3.47;2.95;;;;;;;;;;5038742;28;20239;-66
2022/11/06 00:47:50;;;;;;;3.75;3.03;;;;;;;;;;5038184;28;20210;-67
2022/11/06 00:50:17;;;;;;;5.18;2.95;;;;;;;;;;5038582;28;20292;-66
2022/11/06 00:52:44;;;;;;;3.10;2.75;;;;;;;;;;5038228;28;20206;-68
2022/11/06 00:55:12;;;;;;;4.63;3.40;;;;;;;;;;5038374;28;20233;-67
2022/11/06 00:57:39;;;;;;;5.30;3.05;;;;;;;;;;5038374;28;20208;-67
2022/11/06 01:00:07;;;;;;;3.95;3.10;;;;;;;;;;5038748;28;20204;-66
2022/11/06 01:02:35;;;;;;;5.50;3.13;;;;;;;;;;5037687;28;20259;-67
2022/11/06 01:05:02;;;;;;;4.03;3.60;;;;;;;;;;5037021;28;20709;-67
2022/11/06 01:07:29;;;;;;;5.65;3.10;;;;;;;;;;5038012;28;20213;-67
2022/11/06 01:09:57;;;;;;;4.07;3.35;;;;;;;;;;5038667;28;20217;-68
2022/11/06 01:12:24;;;;;;;5.93;3.53;;;;;;;;;;5038293;28;20209;-66
2022/11/06 01:14:51;;;;;;;6.30;3.53;;;;;;;;;;5037953;28;20225;-67
2022/11/06 01:17:19;;;;;;;4.63;2.95;;;;;;;;;;5037288;28;20231;-66
2022/11/06 01:19:47;;;;;;;4.60;3.88;;;;;;;;;;5037031;28;20210;-66
2022/11/06 01:22:14;;;;;;;3.90;3.15;;;;;;;;;;5037128;28;20210;-67
2022/11/06 01:24:41;;;;;;;4.85;3.10;;;;;;;;;;5036832;28;20221;-66
2022/11/06 01:27:09;;;;;;;5.13;3.50;;;;;;;;;;5036765;28;20201;-67
2022/11/06 01:29:36;;;;;;;4.88;2.80;;;;;;;;;;5036974;28;20208;-67
2022/11/06 01:32:03;;;;;;;3.60;3.30;;;;;;;;;;5037369;28;20209;-67
2022/11/06 01:34:30;;;;;;;3.08;2.67;;;;;;;;;;5037283;28;20713;-67
2022/11/06 01:36:59;;;;;;;4.78;3.28;;;;;;;;;;5037912;28;20207;-68
2022/11/06 01:39:26;;;;;;;7.32;3.30;;;;;;;;;;5042780;28;20213;-67
2022/11/06 01:41:53;;;;;;;8.80;3.40;;;;;;;;;;5040457;28;20288;-67
2022/11/06 01:44:39;;;;;;;3.97;3.45;;;;;;;;;;5039216;28;20235;-66
2022/11/06 01:47:18;;;;;;;5.07;3.15;;;;;;;;;;5036818;28;20212;-67
2022/11/06 01:49:46;;;;;;;3.67;2.80;;;;;;;;;;5036623;28;20294;-67
2022/11/06 01:52:15;;;;;;;4.90;2.70;;;;;;;;;;5037158;28;20208;-67
2022/11/06 01:54:44;;;;;;;7.22;3.70;;;;;;;;;;5036445;28;20224;-67
2022/11/06 01:57:11;;;;;;;3.58;3.20;;;;;;;;;;5036894;28;20204;-67
2022/11/06 01:59:40;;;;;;;6.68;3.65;;;;;;;;;;5038220;28;20255;-67
2022/11/06 02:02:08;;;;;;;4.70;3.25;;;;;;;;;;5036865;28;20588;-67
2022/11/06 02:04:37;;;;;;;3.65;3.10;;;;;;;;;;5036821;28;20328;-67
2022/11/06 02:07:04;;;;;;;4.25;3.10;;;;;;;;;;5039836;28;20215;-66
2022/11/06 02:09:33;;;;;;;3.97;3.55;;;;;;;;;;5039567;28;20204;-67
2022/11/06 02:12:03;;;;;;;6.68;3.58;;;;;;;;;;5037050;28;20205;-65
2022/11/06 02:14:35;;;;;;;3.75;3.13;;;;;;;;;;5036986;28;20229;-67
2022/11/06 02:17:05;;;;;;;3.90;3.40;;;;;;;;;;5037572;28;20184;-67
2022/11/06 02:19:40;;;;;;;3.67;3.38;;;;;;;;;;5036308;28;20230;-66
2022/11/06 02:22:25;;;;;;;4.53;3.20;;;;;;;;;;5035691;28;20652;-66
2022/11/06 02:25:01;;;;;;;4.65;3.47;;;;;;;;;;5035689;28;20269;-67
2022/11/06 02:27:30;;;;;;;5.28;4.03;;;;;;;;;;5035738;28;20189;-67
2022/11/06 02:30:00;;;;;;;4.35;3.35;;;;;;;;;;5035955;28;20204;-66
2022/11/06 02:32:29;;;;;;;4.93;3.70;;;;;;;;;;5035574;28;20209;-66
2022/11/06 02:34:57;;;;;;;5.57;3.60;;;;;;;;;;5035489;28;20235;-67
2022/11/06 02:37:27;;;;;;;7.03;3.65;;;;;;;;;;5035153;28;20573;-67
2022/11/06 02:39:56;;;;;;;5.30;3.42;;;;;;;;;;5035657;28;20206;-67
2022/11/06 02:42:23;;;;;;;4.55;3.80;;;;;;;;;;5035264;28;20282;-67
2022/11/06 02:44:53;;;;;;;4.57;3.63;;;;;;;;;;5034666;28;20713;-67
2022/11/06 02:47:22;;;;;;;4.82;4.40;;;;;;;;;;5035175;28;20672;-66
2022/11/06 02:49:50;;;;;;;4.90;4.00;;;;;;;;;;5034118;28;20212;-65
2022/11/06 02:52:20;;;;;;;4.93;4.40;;;;;;;;;;5037166;28;20204;-67
2022/11/06 02:54:49;;;;;;;4.78;4.15;;;;;;;;;;5036437;28;20225;-67
2022/11/06 02:57:17;;;;;;;4.72;4.22;;;;;;;;;;5037634;28;20271;-67
2022/11/06 02:59:48;;;;;;;6.30;4.30;;;;;;;;;;5042315;28;20211;-67
2022/11/06 03:02:18;;;;;;;5.05;4.55;;;;;;;;;;5040753;28;20226;-67
2022/11/06 03:04:47;;;;;;;6.00;4.65;;;;;;;;;;5042521;28;20292;-67
2022/11/06 03:07:16;;;;;;;7.57;4.00;;;;;;;;;;5043122;28;20650;-67
2022/11/06 03:09:44;;;;;;;10.27;4.75;;;;;;;;;;5041220;28;20675;-67
2022/11/06 03:12:14;;;;;;;5.60;4.70;;;;;;;;;;5041481;28;20209;-67
2022/11/06 03:14:46;;;;;;;4.90;4.45;;;;;;;;;;5038712;28;20225;-67
2022/11/06 03:17:16;;;;;;;5.13;4.63;;;;;;;;;;5038225;28;20190;-67
2022/11/06 03:19:48;;;;;;;7.95;4.50;;;;;;;;;;5036403;28;20192;-68
2022/11/06 03:22:16;;;;;;;7.95;4.80;;;;;;;;;;5035991;28;20303;-67
2022/11/06 03:24:45;;;;;;;7.15;5.47;;;;;;;;;;5038211;28;20224;-67
2022/11/06 03:27:15;;;;;;;5.97;5.15;;;;;;;;;;5034761;28;20586;-67
2022/11/06 03:29:44;;;;;;;8.02;5.28;;;;;;;;;;5034175;28;20205;-68
2022/11/06 03:32:15;;;;;;;5.68;4.82;;;;;;;;;;5034196;28;20210;-67
2022/11/06 03:34:48;;;;;;;6.00;5.32;;;;;;;;;;5033729;28;20228;-67
2022/11/06 03:37:18;;;;;;;7.78;4.65;;;;;;;;;;5034048;28;20643;-67
2022/11/06 03:39:48;;;;;;;9.40;5.30;;;;;;;;;;5038827;28;20204;-67
2022/11/06 03:42:17;;;;;;;8.93;4.47;;;;;;;;;;5050476;28;20215;-67
2022/11/06 03:44:47;;;;;;;7.65;5.10;;;;;;;;;;5051414;28;20231;-68
2022/11/06 03:47:19;;;;;;;7.88;4.88;;;;;;;;;;5047970;28;20208;-68
2022/11/06 03:49:50;;;;;;;7.13;4.50;;;;;;;;;;5043862;28;20189;-66
2022/11/06 03:52:19;;;;;;;7.38;5.55;;;;;;;;;;5035099;28;20192;-67
2022/11/06 03:54:49;;;;;;;9.63;4.93;;;;;;;;;;5034497;28;20232;-67
2022/11/06 03:57:21;;;;;;;7.80;4.40;;;;;;;;;;5034295;28;20208;-66
2022/11/06 03:59:50;;;;;;;6.18;4.97;;;;;;;;;;5034178;28;20194;-67
2022/11/06 04:02:18;;;;;;;6.70;4.90;;;;;;;;;;5033390;28;20205;-66
2022/11/06 04:04:48;;;;;;;5.40;4.40;;;;;;;;;;5033523;28;20228;-66
2022/11/06 04:16:01;;;;;;;7.05;4.78;;;;;;;;;;5090558;28;20222;-67
2022/11/06 04:18:28;;;;;;;6.30;5.28;;;;;;;;;;5090749;28;20205;-66
2022/11/06 04:26:34;;;;;;;5.85;4.85;;;;;;;;;;5091706;28;20256;-67
2022/11/06 04:26:42;;;;;;;4.82;4.40;;;;;;;;;;5090162;28;20215;-67
2022/11/06 04:29:13;;;;;;;6.20;4.90;;;;;;;;;;5090533;28;20296;-66
2022/11/06 04:31:45;;;;;;;7.07;5.45;;;;;;;;;;5090562;28;20187;-67
2022/11/06 04:34:16;;;;;;;6.13;4.63;;;;;;;;;;5090339;28;20725;-67
2022/11/06 04:36:46;;;;;;;5.13;4.63;;;;;;;;;;5091675;28;20195;-66
2022/11/06 04:39:16;;;;;;;8.45;4.72;;;;;;;;;;5091575;28;20199;-67
2022/11/06 04:41:47;;;;;;;6.63;4.47;;;;;;;;;;5090627;28;20578;-66
2022/11/06 04:44:15;;;;;;;7.47;4.47;;;;;;;;;;5090581;28;20219;-66
2022/11/06 04:46:45;;;;;;;5.75;4.13;;;;;;;;;;5090542;28;20544;-67
2022/11/06 04:49:12;;;;;;;4.40;4.00;;;;;;;;;;5090277;28;20230;-66
2022/11/06 04:51:40;;;;;;;6.05;4.28;;;;;;;;;;5090504;28;20198;-67
2022/11/06 04:54:09;;;;;;;5.18;4.07;;;;;;;;;;5093913;28;20223;-67
2022/11/06 04:56:37;;;;;;;6.07;4.03;;;;;;;;;;5093724;28;20564;-67
2022/11/06 04:59:06;;;;;;;5.93;4.10;;;;;;;;;;5090332;28;20198;-66
2022/11/06 05:01:33;;;;;;;5.35;4.15;;;;;;;;;;5091338;28;20208;-67
2022/11/06 05:04:00;;;;;;;9.75;4.35;;;;;;;;;;5091045;28;20207;-66
2022/11/06 05:06:27;;;;;;;8.00;4.28;;;;;;;;;;5081286;28;20544;-66
2022/11/06 05:08:56;;;;;;;5.80;4.05;;;;;;;;;;5080338;28;20222;-66
2022/11/06 05:11:23;;;;;;;9.40;3.97;;;;;;;;;;5081041;28;20250;-66
2022/11/06 05:13:50;;;;;;;8.27;4.75;;;;;;;;;;5078863;28;20206;-66
2022/11/06 05:16:19;;;;;;;9.48;4.28;;;;;;;;;;5088689;28;20228;-66
2022/11/06 05:18:46;;;;;;;6.07;3.60;;;;;;;;;;5089991;28;20202;-66
2022/11/06 05:23:57;;;;;;;8.30;4.10;;;;;;;;;;5076073;28;20546;-67
2022/11/06 05:26:24;;;;;;;6.72;3.83;;;;;;;;;;5076270;28;20688;-67
2022/11/06 05:28:51;;;;;;;5.13;3.67;;;;;;;;;;5079515;28;20254;-66
2022/11/06 05:31:20;;;;;;;5.90;3.50;;;;;;;;;;5077134;28;20212;-67
2022/11/06 05:33:47;;;;;;;5.90;4.30;;;;;;;;;;5071640;28;20199;-65
2022/11/06 05:36:14;;;;;;;6.60;3.85;;;;;;;;;;5075522;28;20221;-66
2022/11/06 05:38:41;;;;;;;3.80;3.22;;;;;;;;;;5076136;28;20207;-66
2022/11/06 05:41:08;;;;;;;8.13;3.70;;;;;;;;;;5068696;28;20195;-68
2022/11/06 05:43:35;;;;;;;9.63;4.38;;;;;;;;;;5055504;28;20215;-66
2022/11/06 05:46:02;;;;;;;5.20;4.05;;;;;;;;;;5055399;28;20238;-67
2022/11/06 05:48:31;;;;;;;4.45;3.40;;;;;;;;;;5056756;28;20201;-67
2022/11/06 05:51:02;;;;;;;6.65;4.35;;;;;;;;;;5056567;28;20208;-67
2022/11/06 05:53:29;;;;;;;5.35;2.90;;;;;;;;;;5063807;28;20537;-66
2022/11/06 05:55:57;;;;;;;4.18;3.45;;;;;;;;;;5064945;28;20231;-66
2022/11/06 05:58:24;;;;;;;7.03;3.80;;;;;;;;;;5074657;28;20210;-66
2022/11/06 06:00:51;;;;;;;5.55;4.10;;;;;;;;;;5074410;28;20664;-65
2022/11/06 06:03:20;;;;;;;6.90;3.92;;;;;;;;;;5074295;28;20813;-67
2022/11/06 06:05:48;;;;;;;8.50;4.95;;;;;;;;;;5072018;28;20253;-67
2022/11/06 06:08:15;;;;;;;6.90;4.45;;;;;;;;;;5054617;28;20203;-66
2022/11/06 06:10:43;;;;;;;5.50;4.38;;;;;;;;;;5064909;28;20207;-65
2022/11/06 06:13:10;;;;;;;11.77;4.63;;;;;;;;;;5061206;28;20203;-67
2022/11/06 06:15:38;;;;;;;8.82;4.32;;;;;;;;;;5054843;28;20249;-66
2022/11/06 06:18:05;;;;;;;4.65;4.15;;;;;;;;;;5054996;28;20564;-66
2022/11/06 06:20:32;;;;;;;9.98;4.68;;;;;;;;;;5059754;28;20199;-65
2022/11/06 06:23:01;;;;;;;6.72;5.53;;;;;;;;;;5061768;28;20571;-66
2022/11/06 06:25:28;;;;;;;10.90;5.43;;;;;;;;;;5054568;28;20223;-66
2022/11/06 06:27:56;;;;;;;5.15;4.47;;;;;;;;;;5054688;28;20200;-68
2022/11/06 06:30:23;;;;;;;5.50;4.05;;;;;;;;;;5054695;28;20242;-67
2022/11/06 06:32:51;;;;;;;6.03;5.30;;;;;;;;;;5053193;28;20672;-67
2022/11/06 06:35:18;;;;;;;6.03;4.53;;;;;;;;;;5054098;28;20695;-66
2022/11/06 06:37:50;;;;;;;6.85;4.20;;;;;;;;;;5054375;28;20211;-67
2022/11/06 06:40:19;;;;;;;9.00;4.68;;;;;;;;;;5054687;28;20198;-67
2022/11/06 06:42:46;;;;;;;5.72;4.43;;;;;;;;;;5062418;28;20212;-66
2022/11/06 06:45:13;;;;;;;5.50;4.05;;;;;;;;;;5077354;28;20217;-66
2022/11/06 06:47:40;;;;;;;5.00;4.47;;;;;;;;;;5072830;28;20209;-67
2022/11/06 06:50:08;;;;;;;8.93;4.78;;;;;;;;;;5056771;28;20223;-66
2022/11/06 06:52:35;;;;;;;8.35;5.78;;;;;;;;;;5054465;28;20200;-67
2022/11/06 06:55:02;;;;;;;6.45;5.43;;;;;;;;;;5058138;28;20226;-67
2022/11/06 06:57:30;;;;;;;10.23;5.82;;;;;;;;;;5074249;28;20210;-66
2022/11/06 06:59:57;;;;;;;5.38;4.78;;;;;;;;;;5053793;28;20195;-67
2022/11/06 07:02:24;;;;;;;5.32;4.63;;;;;;;;;;5054166;28;20200;-66
2022/11/06 07:04:51;;;;;;;7.65;5.13;;;;;;;;;;5053520;28;20219;-66
2022/11/06 07:07:18;;;;;;;7.40;4.85;;;;;;;;;;5053964;28;20198;-66
2022/11/06 07:09:46;;;;;;;6.43;4.93;;;;;;;;;;5053006;28;20215;-67
2022/11/06 07:12:13;;;;;;;9.68;5.30;;;;;;;;;;5054015;28;20203;-67
2022/11/06 07:14:41;;;;;;;5.68;4.30;;;;;;;;;;5053483;28;20235;-66
2022/11/06 07:17:08;;;;;;;6.57;5.05;;;;;;;;;;5053722;28;20196;-67
2022/11/06 07:19:35;;;;;;;6.22;4.88;;;;;;;;;;5054633;28;20207;-67
2022/11/06 07:22:02;;;;;;;10.02;5.88;;;;;;;;;;5053540;28;20201;-68
2022/11/06 07:24:29;;;;;;;6.20;4.63;;;;;;;;;;5053669;28;20224;-66
2022/11/06 07:26:57;;;;;;;7.82;5.32;;;;;;;;;;5053976;28;20200;-67
2022/11/06 07:29:24;;;;;;;6.10;4.22;;;;;;;;;;5053898;28;20230;-67
2022/11/06 07:31:52;;;;;;;9.93;5.07;;;;;;;;;;5053539;28;20200;-67
2022/11/06 07:34:19;;;;;;;10.00;5.00;;;;;;;;;;5053813;28;20220;-66
2022/11/06 07:36:46;;;;;;;5.45;4.72;;;;;;;;;;5053443;28;20703;-66
2022/11/06 07:39:13;;;;;;;8.38;4.72;;;;;;;;;;5053235;28;20204;-67
2022/11/06 07:41:40;;;;;;;7.75;4.53;;;;;;;;;;5053678;28;20560;-67
2022/11/06 07:44:07;;;;;;;5.53;4.18;;;;;;;;;;5053015;28;20719;-69
2022/11/06 07:46:34;;;;;;;6.82;4.53;;;;;;;;;;5052916;28;20695;-68
2022/11/06 07:49:03;;;;;;;6.35;4.70;;;;;;;;;;5053742;28;20580;-67
2022/11/06 07:51:30;;;;;;;5.70;4.97;;;;;;;;;;5053345;28;20207;-66
2022/11/06 07:53:57;;;;;;;6.43;5.38;;;;;;;;;;5053192;28;20684;-64
2022/11/06 07:56:24;;;;;;;7.90;5.47;;;;;;;;;;5052705;28;20577;-67
2022/11/06 07:58:51;;;;;;;10.02;5.68;;;;;;;;;;5058647;28;20206;-67
2022/11/06 08:01:18;;;;;;;9.20;5.70;;;;;;;;;;5063037;28;20213;-67
2022/11/06 08:03:45;;;;;;;9.00;6.13;;;;;;;;;;5075209;28;20706;-65
2022/11/06 08:06:14;;;;;;;10.20;5.18;;;;;;;;;;5082799;28;20200;-69
2022/11/06 08:08:41;;;;;;;7.38;5.40;;;;;;;;;;5079798;28;20208;-70
2022/11/06 08:11:09;;;;;;;6.45;5.80;;;;;;;;;;5075531;28;20221;-65
2022/11/06 08:13:36;;;;;;;5.22;4.45;;;;;;;;;;5076316;28;20197;-65
2022/11/06 08:16:04;;;;;;;9.43;5.53;;;;;;;;;;5064715;28;20223;-66
2022/11/06 08:18:31;;;;;;;6.50;5.00;;;;;;;;;;5055148;28;20226;-65
2022/11/06 08:20:58;;;;;;;7.93;5.60;;;;;;;;;;5055511;28;20200;-65
2022/11/06 08:23:27;;;;;;;8.07;5.18;;;;;;;;;;5073957;28;20199;-65
2022/11/06 08:25:55;;;;;;;8.05;5.10;;;;;;;;;;5061591;28;20340;-65
2022/11/06 08:28:22;;;;;;;9.52;4.88;;;;;;;;;;5072842;28;20207;-65
2022/11/06 08:30:49;;;;;;;6.55;4.97;;;;;;;;;;5065816;28;20211;-64
2022/11/06 08:33:16;;;;;;;6.43;5.60;;;;;;;;;;5053563;28;20239;-65
2022/11/06 08:35:43;;;;;;;6.30;4.78;;;;;;;;;;5053598;28;20236;-64
2022/11/06 08:38:10;;;;;;;8.68;4.90;;;;;;;;;;5064108;28;20223;-63
2022/11/06 08:40:39;;;;;;;5.53;4.63;;;;;;;;;;5073419;28;20196;-65
2022/11/06 08:43:07;;;;;;;10.98;4.95;;;;;;;;;;5072953;28;20235;-65
2022/11/06 08:45:36;;;;;;;6.88;5.05;;;;;;;;;;5064128;28;20223;-66
2022/11/06 08:48:04;;;;;;;6.55;4.63;;;;;;;;;;5054471;28;20204;-66
2022/11/06 08:50:31;;;;;;;5.32;4.80;;;;;;;;;;5055455;28;20237;-66
2022/11/06 08:52:59;;;;;;;8.95;4.95;;;;;;;;;;5065822;28;20199;-66
2022/11/06 08:55:26;;;;;;;6.43;4.70;;;;;;;;;;5056543;28;20282;-64
2022/11/06 08:57:56;;;;;;;7.35;5.15;;;;;;;;;;5059727;28;20211;-65
2022/11/06 09:00:23;;;;;;;5.13;4.15;;;;;;;;;;5064793;28;20215;-65
2022/11/06 09:02:50;;;;;;;6.10;5.03;;;;;;;;;;5077059;28;20210;-65
2022/11/06 09:05:17;;;;;;;5.40;4.90;;;;;;;;;;5076523;28;20548;-66
2022/11/06 09:07:44;;;;;;;6.17;5.23;;;;;;;;;;5072524;28;20459;-66
2022/11/06 09:10:11;;;;;;;5.40;4.90;;;;;;;;;;5064174;28;20478;-65
2022/11/06 09:12:38;;;;;;;7.63;4.80;;;;;;;;;;5078057;28;20451;-65
2022/11/06 09:15:07;;;;;;;6.17;4.80;;;;;;;;;;5061480;28;20463;-65
2022/11/06 09:17:34;;;;;;;4.60;4.15;;;;;;;;;;5056515;28;20477;-65
2022/11/06 09:20:01;;;;;;;7.03;4.40;;;;;;;;;;5056520;28;20203;-66
2022/11/06 09:22:29;;;;;;;5.57;4.00;;;;;;;;;;5056966;28;20476;-64
2022/11/06 09:24:56;;;;;;;5.00;4.07;;;;;;;;;;5056825;28;20468;-66
2022/11/06 09:27:23;;;;;;;6.33;4.17;;;;;;;;;;5072391;28;20448;-67
2022/11/06 09:29:50;;;;;;;6.03;4.23;;;;;;;;;;5076137;28;20474;-67
2022/11/06 09:32:18;;;;;;;7.57;4.77;;;;;;;;;;5065619;28;20448;-66
2022/11/06 09:34:45;;;;;;;5.17;4.40;;;;;;;;;;5077026;28;20506;-66
2022/11/06 09:37:12;;;;;;;5.60;4.40;;;;;;;;;;5077300;28;20471;-65
2022/11/06 09:39:39;;;;;;;6.57;4.00;;;;;;;;;;5076540;28;20451;-66
2022/11/06 09:42:09;;;;;;;4.70;4.22;;;;;;;;;;5075828;28;20451;-65
2022/11/06 09:44:46;;;;;;;6.23;4.00;;;;;;;;;;5075725;28;20229;-64
2022/11/06 09:47:14;;;;;;;5.47;3.63;;;;;;;;;;5074148;28;20437;-64
2022/11/06 09:49:46;;;;;;;4.93;3.70;;;;;;;;;;5075816;28;20843;-65
2022/11/06 09:52:17;;;;;;;3.73;3.20;;;;;;;;;;5076531;28;20429;-64
2022/11/06 09:54:46;;;;;;;4.50;3.77;;;;;;;;;;5072744;28;20471;-66
2022/11/06 09:57:18;;;;;;;5.80;3.90;;;;;;;;;;5055893;28;20844;-65
2022/11/06 09:59:46;;;;;;;4.10;3.37;;;;;;;;;;5056288;28;20428;-65
2022/11/06 10:02:22;;;;;;;8.17;2.90;;;;;;;;;;5056594;28;20453;-65
2022/11/06 10:04:53;;;;;;;4.23;2.83;;;;;;;;;;5058126;28;20468;-65
2022/11/06 10:07:28;;;;;;;4.03;2.93;;;7.40;99.90;;;;;;5056991;28;20495;-65
2022/11/06 10:09:55;;;;;;;3.10;2.57;;;12.10;96.90;;;;;;5056660;28;20465;-65
2022/11/06 10:12:30;;;;;;;5.17;3.03;;;12.30;96.70;;;;;;5056452;28;20448;-66
2022/11/06 10:15:03;;;;;;;5.17;3.53;;;12.30;96.20;;;;;;5055847;28;20983;-66
2022/11/06 10:17:42;;;;;;;7.03;3.30;;;12.50;95.90;;;;;;5055903;28;20915;-66
2022/11/06 10:20:17;;;;;;;3.67;3.27;;;12.50;95.50;;;;;;5057298;28;20793;-65
2022/11/06 10:25:20;;;;;;;4.63;3.20;;;12.50;95.10;;;;;;5070734;22;20552;-67
2022/11/06 10:27:58;;;;;;;5.50;4.03;;;12.60;95.00;;;;;;5036308;28;20189;-67
2022/11/06 10:30:26;;;;;;;4.00;3.63;;;12.60;94.90;;;;;;5035314;28;20467;-66
2022/11/06 10:33:24;;;;;;;5.73;3.77;;;12.60;94.70;;;;;;5035601;28;20448;-66
2022/11/06 10:35:57;;;;;;;4.90;4.40;;;12.60;94.40;;;;;;5036260;28;20435;-68
2022/11/06 10:38:30;;;;;;;5.17;3.80;;;12.50;94.30;;;;;;5035291;28;20434;-68
2022/11/06 10:40:57;;;;;;;8.40;4.83;;;12.50;94.20;;;;;;5035018;28;20877;-69
2022/11/06 10:43:29;;;;;;;9.77;3.97;;;12.50;94.10;;;;;;5036122;28;20543;-67
2022/11/06 10:46:02;;;;;;;5.90;3.43;;;12.50;94.00;;;;;;5034071;28;20820;-68
2022/11/06 10:48:31;;;;;;;5.00;3.83;;;12.50;93.90;;;;;;5035003;28;20443;-67
2022/11/06 10:51:16;;;;;;;7.33;4.60;;;12.50;93.90;;;;;;5035042;28;20491;-67
2022/11/06 10:53:51;;;;;;;5.73;3.57;;;12.50;93.80;;;;;;5035796;28;20463;-67
2022/11/06 10:56:38;;;;;;;4.83;3.33;;;12.60;93.60;;;;;;5037938;28;20462;-67
2022/11/06 10:59:05;;;;;;;3.43;2.90;;;12.60;93.50;;;;;;5036263;28;20867;-67
2022/11/06 11:01:31;;;;;;;5.80;3.67;;;12.70;93.40;;;;;;5038626;28;20468;-68
2022/11/06 11:03:58;;;;;;;5.30;3.60;;;12.70;93.30;;;;;;5037866;28;20495;-67
2022/11/06 11:06:27;;;;;;;4.83;3.60;;;12.70;93.10;;;;;;5038776;28;20524;-67
2022/11/06 11:08:54;;;;;;;8.20;4.57;;;12.70;92.90;;;;;;5038200;28;20438;-67
2022/11/06 11:11:23;;;;;;;3.40;2.90;;;12.70;92.70;;;;;;5037265;28;20484;-67
2022/11/06 11:14:12;;;;;;;4.87;3.00;;;12.80;92.60;;;;;;5036883;28;20471;-67
2022/11/06 11:16:41;;;;;;;3.30;2.57;;;12.80;92.40;;;;;;5037805;28;20838;-67
2022/11/06 11:19:24;;;;;;;4.70;3.23;;;12.80;92.30;;;;;;5036974;28;20517;-67
2022/11/06 11:21:58;;;;;;;3.40;3.10;;;12.80;92.10;;;;;;5036531;28;20458;-68
2022/11/06 11:24:25;;;;;;;4.30;3.17;;;12.80;91.80;;;;;;5035685;28;20500;-67
2022/11/06 11:26:54;;;;;;;5.87;2.93;;;12.90;91.70;;;;;;5037850;28;20449;-68
2022/11/06 11:29:25;;;;;;;6.07;3.10;;;12.90;91.50;;;;;;5036705;28;20443;-67
2022/11/06 11:31:55;;;;;;;4.50;3.17;;;12.90;91.20;;;;;;5038045;28;20506;-68
2022/11/06 11:34:24;;;;;;;3.40;2.63;;;12.90;91.10;;;;;;5035687;28;21000;-67
2022/11/06 11:36:59;;;;;;;4.83;3.10;;;13.00;90.90;;;;;;5035106;28;20447;-68
2022/11/06 11:39:30;;;;;;;3.20;2.90;;;13.10;90.70;;;;;;5035413;28;20435;-67
2022/11/06 11:42:30;;;;;;;6.63;3.20;;;13.10;90.40;;;;;;5034863;28;20439;-67
2022/11/06 11:45:16;;;;;;;4.03;3.63;;;13.10;90.20;;;;;;4955741;29;20478;-68
2022/11/06 11:47:46;;;;;;;3.77;2.90;;;13.10;90.00;;;;;;4955322;29;20483;-67
2022/11/06 11:50:27;;;;;;;5.00;2.90;;;13.10;89.60;;;;;;5004186;28;20465;-67
2022/11/06 11:52:59;;;;;;;3.80;2.83;;;13.10;89.40;;;;;;5035701;28;20439;-67
2022/11/06 11:55:28;;;;;;;3.87;2.80;;;13.10;89.20;;;;;;5035376;28;20509;-67
2022/11/06 11:57:57;;;;;;;3.37;2.50;;;13.10;88.90;;;;;;5035589;28;20468;-67
2022/11/06 12:00:25;;;;;;;3.73;2.60;;;13.10;88.20;;;;;;5035440;28;20456;-68
2022/11/06 12:02:57;;;;;;;3.10;2.27;;;13.20;87.60;;;;;;5035693;28;20448;-68
2022/11/06 12:05:29;;;;;;;3.20;2.13;;;13.20;87.40;;;;;;5035882;28;20863;-67
2022/11/06 12:07:59;;;;;;;3.90;2.30;;;13.30;85.70;;;;;;5035106;28;20436;-67
2022/11/06 12:10:28;;;;;;;2.77;1.87;;;13.30;84.70;;;;;;5036823;28;20449;-70
2022/11/06 12:12:56;;;;;;;4.20;1.97;;;13.40;84.00;;;;;;5035952;28;20546;-67
2022/11/06 12:15:27;;;;;;;4.20;2.57;;;13.40;83.20;;;;;;5036349;28;20964;-67
2022/11/06 12:17:57;;;;;;;3.47;2.33;;;13.50;82.40;;;;;;5036239;28;20522;-67
2022/11/06 12:20:29;;;;;;;7.50;2.60;;;13.50;81.70;;;;;;5035420;28;20523;-66
2022/11/06 12:23:00;;;;;;;4.47;2.60;;;13.60;81.40;;;;;;5035855;28;21082;-69
2022/11/06 12:25:33;;;;;;;2.73;2.10;;;13.60;79.60;;;;;;5037337;28;20448;-67
2022/11/06 12:28:02;;;;;;;4.80;2.47;;;13.50;78.80;;;;;;5036972;28;20443;-66
2022/11/06 12:30:32;;;;;;;3.27;1.80;;;13.50;78.60;;;;;;5034453;28;20439;-67
2022/11/06 12:33:04;;;;;;;2.90;2.07;;;13.50;78.20;;;;;;5037197;28;20514;-63
2022/11/06 12:35:33;;;;;;;3.83;2.13;;;13.40;77.80;;;;;;5038871;28;20433;-65
2022/11/06 12:38:15;;;;;;;6.00;2.80;;;13.40;77.50;;;;;;5038017;28;20444;-66
2022/11/06 12:40:47;;;;;;;2.97;1.97;;;13.30;77.60;;;;;;5037387;28;20440;-65
2022/11/06 12:43:22;;;;;;;3.67;2.50;;;13.30;77.60;;;;;;5038357;28;20469;-65
2022/11/06 12:46:10;;;;;;;2.80;2.30;;;13.40;77.40;;;;;;5038594;28;20439;-65
2022/11/06 12:49:18;;;;;;;2.40;2.20;;;13.40;77.00;;;;;;5038851;28;20432;-66
2022/11/06 12:51:59;;;;;;;2.87;2.00;;;13.50;76.50;;;;;;5038873;28;20471;-67
2022/11/06 12:54:42;;;;;;;3.83;2.10;;;13.50;76.00;;;;;;5037490;28;20463;-66
2022/11/06 12:57:21;;;;;;;3.37;2.47;;;13.40;75.60;;;;;;5039600;28;20935;-64
2022/11/06 13:00:04;;;;;;;5.47;2.80;;;13.30;75.80;;;;;;5038820;28;20429;-65
2022/11/06 13:02:50;;;;;;;4.00;2.30;;;13.30;75.90;;;;;;5037672;28;20421;-64
2022/11/06 13:05:21;;;;;;;4.47;2.30;;;13.20;75.80;;;;;;5037898;28;20430;-65
2022/11/06 13:08:08;;;;;;;4.00;2.37;;;13.20;75.80;;;;;;5038327;28;20432;-66
2022/11/06 13:10:47;;;;;;;5.80;2.60;;;13.20;75.80;;;;;;5038499;28;20511;-66
2022/11/06 13:13:30;;;;;;;4.13;2.03;;;13.20;75.60;;;;;;5037423;28;20475;-66
2022/11/06 13:16:03;;;;;;;1.87;1.63;;;13.30;75.40;;;;;;5036916;28;20435;-66
2022/11/06 13:18:33;;;;;;;4.20;2.47;;;13.30;74.90;;;;;;5036902;28;20811;-66
2022/11/06 13:21:05;;;;;;;2.50;2.10;;;13.30;74.50;;;;;;5036180;28;20436;-65
2022/11/06 13:23:37;;;;;;;4.60;2.17;;;13.30;74.20;;;;;;5035892;28;20495;-66
2022/11/06 13:26:12;;;;;;;4.20;2.43;;;13.20;73.90;;;;;;5036271;28;20452;-65
2022/11/06 13:28:43;;;;;;;3.17;2.07;;;13.20;73.90;;;;;;5037688;28;20442;-65
2022/11/06 13:31:13;;;;;;;3.07;2.30;;;13.10;73.90;;;;;;5037672;28;20467;-65
2022/11/06 13:33:44;;;;;;;9.17;2.50;;;13.10;73.90;;;;;;5037919;28;20467;-66
2022/11/06 13:36:11;;;;;;;5.33;1.87;;;13.00;74.10;;;;;;5036581;28;20446;-65
2022/11/06 13:38:41;;;;;;;3.47;2.37;;;12.90;74.10;;;;;;5037350;28;20451;-64
2022/11/06 13:41:15;;;;;;;4.10;2.73;;;12.80;74.20;;;;;;5037309;28;20959;-64
2022/11/06 13:43:46;;;;;;;4.30;2.83;;;12.80;74.50;;;;;;5037253;28;20856;-64
2022/11/06 13:46:24;;;;;;;4.20;2.50;;;12.60;74.80;;;;;;5037139;28;20433;-65
2022/11/06 13:49:01;;;;;;;3.23;2.50;;;12.60;75.20;;;;;;5036910;28;20455;-65
2022/11/06 13:51:40;;;;;;;3.80;2.43;;;12.50;75.60;;;;;;5038421;28;20485;-64
2022/11/06 13:54:17;;;;;;;3.20;2.17;;;12.50;76.00;;;;;;5037641;28;20466;-64
2022/11/06 13:57:03;;;;;;;4.13;2.40;;;12.30;76.00;;;;;;5037182;28;20423;-64
2022/11/06 14:00:01;;;;;;;4.20;2.07;;;12.30;76.40;;;;;;5037520;28;20444;-64
2022/11/06 14:02:53;;;;;;;3.20;2.33;;;12.20;76.40;;;;;;5021570;28;20452;-65
2022/11/06 14:05:42;;;;;;;3.97;2.40;;;12.20;76.70;;;;;;5037676;28;20425;-64
2022/11/06 14:08:16;;;;;;;3.70;2.70;;;12.10;77.00;;;;;;5038006;28;20592;-65
2022/11/06 14:10:53;;;;;;;4.77;2.80;;;12.20;77.40;;;;;;5038110;28;20428;-64
2022/11/06 14:13:27;;;;;;;3.43;2.53;;;12.10;77.50;;;;;;5037405;28;20958;-64
2022/11/06 14:16:24;;;;;;;4.60;2.73;;;12.10;77.80;;;;;;5039115;28;20434;-64
2022/11/06 14:19:02;;;;;;;4.17;2.50;;;12.20;78.20;;;;;;5038404;28;20478;-65
2022/11/06 14:21:47;;;;;;;5.70;2.90;;;12.20;78.50;;;;;;5040029;28;20779;-66
2022/11/06 14:24:31;;;;;;;5.03;2.60;;;12.20;78.80;;;;;;5037809;28;20479;-65
2022/11/06 14:26:59;;;;;;;8.77;3.10;;;12.30;79.20;;;;;;5034211;28;20979;-65
2022/11/06 14:29:55;;;;;;;3.80;2.10;;;12.30;79.40;;;;;;5036230;28;20486;-66
2022/11/06 14:32:43;;;;;;;3.70;2.60;;;12.40;79.70;;;;;;5037740;28;20467;-65
2022/11/06 14:35:49;;;;;;;4.13;2.53;;;12.40;79.80;;;;;;5037118;28;20478;-64
2022/11/06 14:38:19;;;;;;;3.93;2.17;;;12.40;79.90;;;;;;5038079;28;20489;-65
2022/11/06 14:40:46;;;;;;;7.50;2.27;;;12.30;79.90;;;;;;5036476;28;20536;-65
2022/11/06 14:43:18;;;;;;;4.57;3.20;;;12.30;80.20;;;;;;5036061;28;20466;-64